Time;durP1;ratioP1;P1;durP2;ratioP2;P2;SDS_P1;SDS_P2;PMS_P1;PMS_P2;Temp;Humidity;BMP_temperature;BMP_pressure;BME280_temperature;BME280_humidity;BME280_pressure;Samples;Min_cycle;Max_cycle;Signal;HPM_P1;HPM_P2
2020/12/17 00:00:45;;;;;;;11.68;8.60;;;9.00;93.10;;;;;;5042958;28;20023;-73
2020/12/17 00:03:11;;;;;;;11.70;8.32;;;9.00;93.10;;;;;;5076350;28;20032;-73
2020/12/17 00:05:36;;;;;;;9.82;7.82;;;9.00;93.10;;;;;;5059363;28;20503;-73
2020/12/17 00:08:02;;;;;;;10.23;7.43;;;9.00;93.10;;;;;;5042486;28;20047;-73
2020/12/17 00:10:27;;;;;;;10.43;7.00;;;9.00;93.10;;;;;;5093773;28;20507;-73
2020/12/17 00:12:53;;;;;;;8.77;7.05;;;9.00;93.10;;;;;;5093961;28;20082;-73
2020/12/17 00:15:19;;;;;;;8.90;7.10;;;9.00;93.00;;;;;;5076114;28;20029;-73
2020/12/17 00:17:48;;;;;;;8.35;6.47;;;9.10;93.10;;;;;;5068813;28;20029;-73
2020/12/17 00:20:16;;;;;;;8.83;7.37;;;9.10;93.10;;;;;;5072603;28;20494;-73
2020/12/17 00:22:42;;;;;;;7.75;5.97;;;9.00;93.00;;;;;;5075741;28;20342;-73
2020/12/17 00:25:09;;;;;;;12.13;6.75;;;9.00;93.00;;;;;;5094088;28;20361;-73
2020/12/17 00:27:36;;;;;;;8.05;6.18;;;9.00;93.00;;;;;;5093838;28;20469;-73
2020/12/17 00:30:06;;;;;;;8.05;6.32;;;9.00;93.10;;;;;;5093337;28;20040;-73
2020/12/17 00:32:32;;;;;;;8.05;6.70;;;9.00;93.00;;;;;;5091317;28;20024;-72
2020/12/17 00:34:58;;;;;;;7.85;6.70;;;9.00;93.00;;;;;;5092634;28;20032;-73
2020/12/17 00:37:29;;;;;;;9.55;6.85;;;9.00;93.10;;;;;;5059040;28;20439;-75
2020/12/17 00:39:54;;;;;;;10.82;6.28;;;9.00;93.10;;;;;;5075302;28;20111;-75
2020/12/17 00:42:20;;;;;;;8.38;6.32;;;9.00;93.10;;;;;;5058554;28;20063;-75
2020/12/17 00:44:45;;;;;;;8.32;6.30;;;9.00;93.10;;;;;;5059033;28;20134;-76
2020/12/17 00:47:11;;;;;;;9.98;6.50;;;9.00;93.00;;;;;;5093832;28;20016;-77
2020/12/17 00:49:36;;;;;;;10.88;7.15;;;9.00;93.00;;;;;;5059133;28;20506;-76
2020/12/17 00:52:02;;;;;;;10.07;6.63;;;9.10;93.00;;;;;;5058956;28;20028;-76
2020/12/17 00:54:29;;;;;;;9.32;6.75;;;9.10;93.00;;;;;;5093749;28;20407;-76
2020/12/17 00:56:54;;;;;;;8.48;6.10;;;9.10;92.90;;;;;;5075772;28;20028;-77
2020/12/17 00:59:21;;;;;;;7.55;6.20;;;9.10;92.90;;;;;;5093586;28;20031;-77
2020/12/17 01:01:47;;;;;;;9.32;6.47;;;9.10;92.90;;;;;;5093741;28;20106;-77
2020/12/17 01:04:12;;;;;;;7.38;5.90;;;9.10;92.90;;;;;;5104363;28;20610;-76
2020/12/17 01:06:38;;;;;;;7.65;5.90;;;9.10;92.80;;;;;;5080049;28;20028;-73
2020/12/17 01:09:04;;;;;;;9.77;6.38;;;9.10;92.80;;;;;;5058579;28;20039;-73
2020/12/17 01:11:31;;;;;;;10.30;5.90;;;9.20;92.80;;;;;;5058450;28;20032;-73
2020/12/17 01:13:57;;;;;;;8.30;5.55;;;9.20;92.80;;;;;;5093052;28;20376;-73
2020/12/17 01:16:22;;;;;;;8.57;6.00;;;9.20;92.80;;;;;;5074750;28;20020;-73
2020/12/17 01:18:49;;;;;;;7.75;5.50;;;9.20;92.80;;;;;;5074384;28;20180;-73
2020/12/17 01:21:15;;;;;;;8.10;6.03;;;9.20;92.70;;;;;;5092994;28;20021;-73
2020/12/17 01:23:41;;;;;;;7.63;6.05;;;9.20;92.70;;;;;;5092905;28;20024;-73
2020/12/17 01:26:08;;;;;;;8.35;6.00;;;9.20;92.70;;;;;;5093021;28;20502;-73
2020/12/17 01:28:34;;;;;;;8.18;6.10;;;9.20;92.60;;;;;;5092689;28;20013;-73
2020/12/17 01:31:05;;;;;;;8.70;5.88;;;9.20;92.60;;;;;;5088248;28;20023;-72
2020/12/17 01:33:30;;;;;;;7.43;5.60;;;9.20;92.60;;;;;;5074542;28;20035;-73
2020/12/17 01:35:59;;;;;;;8.13;6.05;;;9.20;92.60;;;;;;5092856;28;20469;-73
2020/12/17 01:38:24;;;;;;;7.45;5.65;;;9.20;92.80;;;;;;5073993;28;20020;-73
2020/12/17 01:40:50;;;;;;;8.95;6.28;;;9.20;92.60;;;;;;5037577;28;20106;-73
2020/12/17 01:43:15;;;;;;;9.00;5.40;;;9.20;92.50;;;;;;5095278;28;20040;-74
2020/12/17 01:45:41;;;;;;;8.23;5.97;;;9.20;92.50;;;;;;5092387;28;20119;-73
2020/12/17 01:48:08;;;;;;;7.65;5.78;;;9.20;92.50;;;;;;5078500;28;20032;-73
2020/12/17 01:50:34;;;;;;;8.20;6.20;;;9.30;92.50;;;;;;5096651;28;20111;-73
2020/12/17 01:53:00;;;;;;;6.85;5.72;;;9.20;92.50;;;;;;5078881;28;20480;-75
2020/12/17 01:55:28;;;;;;;7.85;5.45;;;9.30;92.50;;;;;;5096649;28;20093;-75
2020/12/17 01:57:57;;;;;;;8.75;5.70;;;9.20;92.40;;;;;;5078379;28;20024;-75
2020/12/17 02:00:24;;;;;;;8.63;5.78;;;9.30;92.50;;;;;;5077882;28;20028;-75
2020/12/17 02:02:50;;;;;;;8.02;5.55;;;9.20;92.40;;;;;;5096624;28;20027;-75
2020/12/17 02:05:15;;;;;;;11.52;6.03;;;9.30;92.50;;;;;;5078476;28;20036;-75
2020/12/17 02:07:44;;;;;;;7.05;5.60;;;9.20;92.50;;;;;;5078275;28;20051;-75
2020/12/17 02:10:11;;;;;;;9.63;5.85;;;9.30;92.50;;;;;;5094732;28;20070;-75
2020/12/17 02:12:48;;;;;;;7.18;5.43;;;9.30;92.50;;;;;;5089963;28;20040;-75
2020/12/17 02:15:14;;;;;;;6.90;5.45;;;9.30;92.50;;;;;;5091394;28;20099;-75
2020/12/17 02:17:40;;;;;;;8.85;5.72;;;9.30;92.50;;;;;;5077663;28;20070;-75
2020/12/17 02:20:08;;;;;;;9.10;5.47;;;9.30;92.50;;;;;;5096223;28;20488;-75
2020/12/17 02:22:34;;;;;;;7.15;5.50;;;9.30;92.50;;;;;;5078241;28;20082;-75
2020/12/17 02:25:01;;;;;;;6.78;5.43;;;9.30;92.50;;;;;;5077949;28;20145;-75
2020/12/17 02:27:27;;;;;;;6.43;5.35;;;9.30;92.50;;;;;;5091067;28;20500;-75
2020/12/17 02:29:53;;;;;;;11.00;5.47;;;9.30;92.50;;;;;;5070290;28;20037;-75
2020/12/17 02:32:18;;;;;;;9.30;5.95;;;9.30;92.50;;;;;;5077630;28;20039;-82
2020/12/17 02:34:44;;;;;;;6.70;5.82;;;9.30;92.50;;;;;;5096582;28;20060;-82
2020/12/17 02:37:10;;;;;;;11.52;5.45;;;9.40;92.50;;;;;;5095591;28;20024;-82
2020/12/17 02:39:36;;;;;;;7.88;5.63;;;9.40;92.50;;;;;;5076463;28;20085;-82
2020/12/17 02:42:03;;;;;;;6.60;5.55;;;9.40;92.50;;;;;;5077533;28;20028;-82
2020/12/17 02:44:28;;;;;;;8.32;5.30;;;9.40;92.50;;;;;;5088682;28;20502;-82
2020/12/17 02:46:54;;;;;;;9.60;5.97;;;9.30;92.50;;;;;;5089995;28;20036;-82
2020/12/17 02:49:20;;;;;;;8.35;6.00;;;9.30;92.50;;;;;;5061187;28;20035;-82
2020/12/17 02:51:45;;;;;;;6.25;5.28;;;9.30;92.50;;;;;;5077618;28;20123;-83
2020/12/17 02:54:11;;;;;;;9.55;5.68;;;9.30;92.50;;;;;;5077904;28;20114;-82
2020/12/17 02:56:37;;;;;;;6.55;5.53;;;9.40;92.60;;;;;;5075884;28;20048;-82
2020/12/17 02:59:03;;;;;;;10.68;6.45;;;9.40;92.60;;;;;;5057981;28;20025;-82
2020/12/17 03:01:28;;;;;;;9.93;5.70;;;9.40;92.60;;;;;;5074721;28;20048;-82
2020/12/17 03:03:54;;;;;;;8.60;6.05;;;9.40;92.60;;;;;;5074379;28;20044;-83
2020/12/17 03:06:20;;;;;;;10.35;6.07;;;9.40;92.60;;;;;;5075583;28;20048;-82
2020/12/17 03:08:46;;;;;;;8.75;6.60;;;9.40;92.60;;;;;;5057627;28;20029;-82
2020/12/17 03:11:12;;;;;;;10.82;6.20;;;9.40;92.60;;;;;;5075004;28;20055;-73
2020/12/17 03:13:37;;;;;;;8.50;6.05;;;9.40;92.60;;;;;;5057212;28;20063;-73
2020/12/17 03:16:03;;;;;;;8.95;6.20;;;9.40;92.60;;;;;;5056779;28;20529;-73
2020/12/17 03:18:28;;;;;;;7.13;5.53;;;9.50;92.70;;;;;;5073333;28;20024;-73
2020/12/17 03:20:54;;;;;;;9.07;6.07;;;9.40;92.60;;;;;;5056924;28;20029;-73
2020/12/17 03:23:21;;;;;;;14.73;7.05;;;9.40;92.60;;;;;;5074720;28;20025;-73
2020/12/17 03:25:47;;;;;;;12.40;6.55;;;9.40;92.60;;;;;;5073024;28;20114;-73
2020/12/17 03:28:12;;;;;;;10.85;6.32;;;9.50;92.70;;;;;;5056778;28;20472;-75
2020/12/17 03:30:38;;;;;;;12.73;6.43;;;9.50;92.70;;;;;;5073475;28;20538;-75
2020/12/17 03:33:04;;;;;;;10.70;6.00;;;9.50;92.60;;;;;;5074549;28;20064;-75
2020/12/17 03:35:30;;;;;;;9.50;6.18;;;9.60;92.70;;;;;;5071481;28;20107;-75
2020/12/17 03:37:58;;;;;;;7.28;5.50;;;9.60;92.60;;;;;;5073187;28;20460;-75
2020/12/17 03:40:28;;;;;;;6.80;4.90;;;9.60;92.60;;;;;;5074362;28;20585;-73
2020/12/17 03:42:53;;;;;;;8.55;5.80;;;9.70;92.60;;;;;;5056699;28;20123;-73
2020/12/17 03:45:19;;;;;;;9.57;5.75;;;9.70;92.60;;;;;;5074310;28;20104;-73
2020/12/17 03:47:45;;;;;;;7.32;5.82;;;9.70;92.60;;;;;;5073301;28;20436;-73
2020/12/17 03:50:11;;;;;;;9.82;5.50;;;9.70;92.50;;;;;;5073926;28;20029;-73
2020/12/17 03:52:36;;;;;;;6.85;5.00;;;9.80;92.60;;;;;;5073287;28;20111;-73
2020/12/17 03:55:04;;;;;;;7.45;5.00;;;9.80;92.50;;;;;;5079796;28;20043;-72
2020/12/17 03:57:29;;;;;;;9.20;5.70;;;9.80;92.50;;;;;;5094321;28;20031;-73
2020/12/17 03:59:55;;;;;;;8.85;5.35;;;9.80;92.50;;;;;;5093964;28;20084;-72
2020/12/17 04:02:20;;;;;;;7.93;5.18;;;9.80;92.50;;;;;;5094385;28;20503;-73
2020/12/17 04:04:46;;;;;;;11.13;5.13;;;9.80;92.50;;;;;;5093666;28;20036;-72
2020/12/17 04:07:13;;;;;;;6.35;4.80;;;9.80;92.50;;;;;;5075715;28;20043;-73
2020/12/17 04:09:39;;;;;;;7.45;4.93;;;9.90;92.40;;;;;;5058112;28;20480;-73
2020/12/17 04:12:06;;;;;;;7.80;5.13;;;9.90;92.40;;;;;;5092740;28;20120;-73
2020/12/17 04:14:31;;;;;;;7.07;5.20;;;9.90;92.40;;;;;;5059022;28;20021;-73
2020/12/17 04:16:57;;;;;;;11.15;5.40;;;9.90;92.40;;;;;;5090747;28;20035;-73
2020/12/17 04:19:23;;;;;;;9.15;5.22;;;9.90;92.40;;;;;;5075324;28;20016;-73
2020/12/17 04:21:48;;;;;;;10.13;5.45;;;9.90;92.30;;;;;;5075774;28;20032;-73
2020/12/17 04:24:14;;;;;;;8.18;5.35;;;9.90;92.40;;;;;;5072327;28;20021;-73
2020/12/17 04:26:40;;;;;;;9.95;5.30;;;9.90;92.40;;;;;;5076036;28;20045;-73
2020/12/17 04:29:05;;;;;;;10.85;5.50;;;10.00;92.40;;;;;;5053584;28;20033;-73
2020/12/17 04:31:31;;;;;;;9.55;5.65;;;9.90;92.30;;;;;;5075491;28;20032;-73
2020/12/17 04:33:57;;;;;;;7.43;5.90;;;10.00;92.40;;;;;;5058926;28;20032;-73
2020/12/17 04:36:23;;;;;;;11.07;5.93;;;10.00;92.40;;;;;;5073717;28;20380;-73
2020/12/17 04:38:49;;;;;;;8.23;5.63;;;10.00;92.40;;;;;;5093172;28;20031;-73
2020/12/17 04:41:19;;;;;;;8.95;5.38;;;10.00;92.50;;;;;;5093405;28;20032;-73
2020/12/17 04:43:46;;;;;;;8.30;5.82;;;9.90;92.50;;;;;;5093680;28;20423;-73
2020/12/17 04:46:16;;;;;;;12.32;5.90;;;10.00;92.60;;;;;;5092998;28;20056;-73
2020/12/17 04:48:43;;;;;;;7.20;5.93;;;9.90;92.60;;;;;;5093492;28;20035;-72
2020/12/17 04:51:09;;;;;;;10.80;5.85;;;10.00;92.70;;;;;;5085237;28;20099;-73
2020/12/17 04:53:38;;;;;;;7.05;5.13;;;10.00;92.70;;;;;;5075055;28;20047;-73
2020/12/17 04:56:04;;;;;;;11.30;5.50;;;9.90;92.80;;;;;;5108267;27;20040;-72
2020/12/17 04:58:31;;;;;;;11.80;5.43;;;9.90;92.80;;;;;;5074675;28;20036;-73
2020/12/17 05:00:57;;;;;;;8.77;5.45;;;9.90;92.90;;;;;;5093049;28;20024;-73
2020/12/17 05:03:23;;;;;;;9.85;5.70;;;9.90;93.00;;;;;;5075102;28;20536;-73
2020/12/17 05:05:53;;;;;;;9.80;5.28;;;9.90;93.00;;;;;;5093062;28;20028;-73
2020/12/17 05:08:23;;;;;;;8.82;5.20;;;9.90;93.10;;;;;;5056309;28;20036;-73
2020/12/17 05:10:49;;;;;;;6.18;5.40;;;9.90;93.20;;;;;;5092947;28;20056;-74
2020/12/17 05:13:18;;;;;;;9.45;5.28;;;9.90;93.20;;;;;;5075260;28;20444;-73
2020/12/17 05:15:45;;;;;;;7.03;4.93;;;9.90;93.30;;;;;;5070556;28;20032;-73
2020/12/17 05:18:10;;;;;;;7.75;5.65;;;9.90;93.30;;;;;;5074235;28;20047;-73
2020/12/17 05:20:38;;;;;;;15.45;6.10;;;9.90;93.30;;;;;;5072456;28;20062;-73
2020/12/17 05:23:05;;;;;;;8.05;5.68;;;9.90;93.40;;;;;;5074430;28;20123;-73
2020/12/17 05:25:31;;;;;;;8.38;5.68;;;9.90;93.40;;;;;;5092352;28;20118;-73
2020/12/17 05:28:00;;;;;;;12.45;5.68;;;9.90;93.50;;;;;;5066692;28;20037;-73
2020/12/17 05:30:35;;;;;;;9.95;6.07;;;9.90;93.80;;;;;;5074670;28;20035;-73
2020/12/17 05:33:02;;;;;;;9.13;6.03;;;9.90;93.60;;;;;;5084929;28;20031;-73
2020/12/17 05:35:35;;;;;;;14.13;6.55;;;9.90;93.60;;;;;;5092978;28;20060;-84
2020/12/17 05:38:05;;;;;;;11.65;6.80;;;9.90;93.70;;;;;;5090443;28;20031;-83
2020/12/17 05:40:41;;;;;;;10.50;6.50;;;9.90;93.70;;;;;;5093332;28;20460;-83
2020/12/17 05:43:08;;;;;;;15.13;7.15;;;9.90;93.80;;;;;;5093977;28;20097;-83
2020/12/17 05:45:35;;;;;;;9.23;6.00;;;9.80;93.70;;;;;;5093260;28;20048;-83
2020/12/17 05:48:15;;;;;;;9.18;6.60;;;9.80;93.80;;;;;;5093257;28;20025;-83
2020/12/17 05:50:52;;;;;;;13.57;7.15;;;9.90;93.90;;;;;;5096604;28;20008;-84
2020/12/17 05:53:19;;;;;;;10.88;6.85;;;9.90;93.90;;;;;;5101264;28;20028;-83
2020/12/17 05:55:45;;;;;;;16.85;8.98;;;9.80;93.90;;;;;;5092877;28;20051;-83
2020/12/17 05:58:11;;;;;;;10.88;7.03;;;9.80;93.90;;;;;;5093124;28;20461;-83
2020/12/17 06:00:37;;;;;;;10.07;6.90;;;9.80;94.00;;;;;;5093302;28;20103;-83
2020/12/17 06:03:03;;;;;;;12.68;6.80;;;9.80;94.00;;;;;;5093122;28;20151;-83
2020/12/17 06:05:31;;;;;;;12.00;7.05;;;9.80;94.00;;;;;;5075017;28;20376;-83
2020/12/17 06:08:00;;;;;;;10.48;6.72;;;9.80;94.00;;;;;;5092481;28;20067;-83
2020/12/17 06:10:27;;;;;;;;;;;9.80;94.00;;;;;;5058384;28;20032;-83
2020/12/17 06:13:00;;;;;;;9.38;5.90;;;9.80;94.00;;;;;;5074484;28;19916;-83
2020/12/17 06:15:27;;;;;;;12.07;6.88;;;9.70;94.00;;;;;;5058760;28;20024;-83
2020/12/17 06:17:55;;;;;;;9.23;6.70;;;9.80;94.00;;;;;;5092888;28;20358;-83
2020/12/17 06:20:22;;;;;;;11.52;6.57;;;9.80;94.10;;;;;;5077552;28;20026;-83
2020/12/17 06:22:53;;;;;;;12.73;7.35;;;9.70;94.00;;;;;;5113115;28;20024;-83
2020/12/17 06:25:20;;;;;;;10.35;6.80;;;9.70;94.00;;;;;;5122076;28;20032;-83
2020/12/17 06:27:47;;;;;;;9.15;6.53;;;9.80;94.10;;;;;;5058310;28;20123;-83
2020/12/17 06:30:17;;;;;;;8.15;6.70;;;9.80;94.10;;;;;;5094019;28;20035;-83
2020/12/17 06:32:42;;;;;;;;;;;9.80;94.10;;;;;;5077724;28;20039;-83
2020/12/17 06:35:28;;;;;;;11.65;7.65;;;9.80;94.00;;;;;;5093858;28;19904;-78
2020/12/17 06:37:55;;;;;;;10.38;6.72;;;9.80;94.10;;;;;;5078021;28;20059;-76
2020/12/17 06:40:28;;;;;;;12.45;6.68;;;9.70;94.10;;;;;;5077867;28;20016;-77
2020/12/17 06:42:55;;;;;;;10.25;7.03;;;9.70;94.40;;;;;;5096141;28;20038;-76
2020/12/17 06:45:25;;;;;;;11.60;6.55;;;9.70;94.10;;;;;;5095792;28;20070;-77
2020/12/17 06:47:51;;;;;;;10.55;6.82;;;9.70;94.10;;;;;;5077971;28;20030;-76
2020/12/17 06:50:28;;;;;;;8.93;6.50;;;9.70;94.10;;;;;;5111439;28;20036;-83
2020/12/17 06:53:04;;;;;;;11.10;6.80;;;9.70;94.10;;;;;;5096305;28;20020;-84
2020/12/17 06:55:42;;;;;;;12.27;6.93;;;9.70;94.20;;;;;;5093949;28;20044;-75
2020/12/17 06:58:17;;;;;;;11.20;7.00;;;9.70;94.20;;;;;;5094427;28;20020;-75
2020/12/17 07:00:42;;;;;;;11.63;6.78;;;9.70;94.20;;;;;;5079148;28;20047;-75
2020/12/17 07:03:08;;;;;;;9.23;6.75;;;9.70;94.20;;;;;;5057542;28;20465;-75
2020/12/17 07:05:35;;;;;;;9.45;7.10;;;9.70;94.20;;;;;;5073771;28;20036;-75
2020/12/17 07:08:01;;;;;;;11.15;6.60;;;9.60;94.20;;;;;;5073847;28;20028;-75
2020/12/17 07:10:28;;;;;;;11.52;7.35;;;9.60;94.20;;;;;;5075088;28;20043;-75
2020/12/17 07:12:54;;;;;;;8.65;5.80;;;9.60;94.20;;;;;;5075006;28;20028;-75
2020/12/17 07:15:33;;;;;;;7.35;6.13;;;9.60;94.20;;;;;;5073958;28;20024;-75
2020/12/17 07:18:20;;;;;;;;;;;9.60;94.20;;;;;;5075447;28;20017;-75
2020/12/17 07:20:50;;;;;;;9.20;5.57;;;9.60;94.10;;;;;;5073968;28;20439;-74
2020/12/17 07:23:15;;;;;;;6.10;5.50;;;9.50;94.20;;;;;;5073687;28;20119;-75
2020/12/17 07:25:43;;;;;;;8.45;6.13;;;9.50;94.20;;;;;;5074760;28;20071;-75
2020/12/17 07:28:13;;;;;;;7.72;5.57;;;9.50;94.20;;;;;;5073473;28;20033;-75
2020/12/17 07:30:39;;;;;;;6.65;5.43;;;9.50;94.20;;;;;;5074851;28;20155;-75
2020/12/17 07:33:04;;;;;;;7.90;5.35;;;9.50;94.20;;;;;;5056589;28;20119;-75
2020/12/17 07:35:30;;;;;;;7.75;5.43;;;9.50;94.20;;;;;;5074467;28;20119;-75
2020/12/17 07:37:57;;;;;;;9.15;5.90;;;9.50;94.20;;;;;;5074660;28;20033;-75
2020/12/17 07:40:33;;;;;;;11.05;5.20;;;9.50;94.10;;;;;;5073306;28;20159;-75
2020/12/17 07:43:13;;;;;;;10.13;5.35;;;9.50;94.20;;;;;;5074824;28;20028;-75
2020/12/17 07:45:42;;;;;;;7.53;5.40;;;9.40;94.10;;;;;;5071171;28;20025;-75
2020/12/17 07:48:54;;;;;;;5.68;4.70;;;9.40;94.10;;;;;;5094422;28;20027;-75
2020/12/17 07:51:20;;;;;;;6.18;4.28;;;9.40;94.10;;;;;;5087728;28;20377;-75
2020/12/17 07:53:50;;;;;;;4.78;4.18;;;9.30;94.10;;;;;;5074280;28;20029;-75
2020/12/17 07:56:17;;;;;;;6.50;4.18;;;9.30;94.10;;;;;;5072454;28;20044;-73
2020/12/17 07:58:43;;;;;;;7.13;3.67;;;9.30;94.10;;;;;;5072414;28;20461;-73
2020/12/17 08:01:13;;;;;;;4.45;3.40;;;9.20;94.10;;;;;;5074041;28;20029;-73
2020/12/17 08:03:44;;;;;;;5.95;3.53;;;9.30;94.10;;;;;;5074001;28;20105;-73
2020/12/17 08:06:12;;;;;;;5.43;3.58;;;9.20;94.10;;;;;;5073933;28;20024;-73
2020/12/17 08:08:39;;;;;;;4.65;3.42;;;9.20;94.10;;;;;;5073622;28;20020;-73
2020/12/17 08:11:06;;;;;;;6.13;3.92;;;9.20;94.10;;;;;;5073641;28;20048;-73
2020/12/17 08:13:31;;;;;;;4.90;3.40;;;9.20;94.10;;;;;;5073739;28;20028;-73
2020/12/17 08:16:04;;;;;;;8.07;4.07;;;9.20;94.00;;;;;;5055861;28;20377;-73
2020/12/17 08:18:31;;;;;;;5.40;3.85;;;9.20;94.00;;;;;;5072655;28;20039;-73
2020/12/17 08:21:08;;;;;;;4.95;3.90;;;9.20;94.00;;;;;;5073798;28;20025;-73
2020/12/17 08:23:36;;;;;;;6.07;3.70;;;9.20;94.00;;;;;;5073846;28;20503;-76
2020/12/17 08:26:04;;;;;;;4.97;3.60;;;9.30;94.00;;;;;;5072742;28;20031;-76
2020/12/17 08:28:31;;;;;;;5.43;3.53;;;9.20;93.90;;;;;;5074130;28;20267;-76
2020/12/17 08:31:05;;;;;;;4.25;3.40;;;9.20;94.20;;;;;;5072725;28;20384;-76
2020/12/17 08:33:33;;;;;;;5.88;3.88;;;9.20;94.00;;;;;;5074361;28;20031;-83
2020/12/17 08:36:08;;;;;;;5.43;3.75;;;9.20;93.90;;;;;;5073071;28;20020;-83
2020/12/17 08:38:34;;;;;;;6.15;3.67;;;9.20;93.90;;;;;;5053039;28;20044;-84
2020/12/17 08:41:01;;;;;;;4.68;3.45;;;9.20;93.90;;;;;;5052940;28;20040;-77
2020/12/17 08:43:43;;;;;;;3.75;3.10;;;9.20;93.90;;;;;;5067739;28;20163;-76
2020/12/17 08:46:13;;;;;;;4.00;3.10;;;9.30;93.90;;;;;;5073228;28;20032;-77
2020/12/17 08:48:40;;;;;;;6.60;3.10;;;9.30;93.80;;;;;;5071816;28;20028;-76
2020/12/17 08:51:09;;;;;;;4.72;2.90;;;9.40;93.80;;;;;;5071547;28;20112;-75
2020/12/17 08:53:40;;;;;;;3.95;2.80;;;9.40;93.70;;;;;;5072867;28;20051;-75
2020/12/17 08:56:12;;;;;;;4.25;2.80;;;9.40;93.60;;;;;;5071368;28;20048;-75
2020/12/17 08:58:48;;;;;;;4.18;2.55;;;9.50;93.60;;;;;;5071700;28;20020;-75
2020/12/17 09:01:23;;;;;;;6.50;2.85;;;9.50;93.50;;;;;;5072864;28;20020;-75
2020/12/17 09:03:49;;;;;;;2.90;2.58;;;9.50;93.50;;;;;;5071746;28;20028;-75
2020/12/17 09:06:15;;;;;;;5.20;2.50;;;9.50;93.40;;;;;;5071672;28;20021;-75
2020/12/17 09:08:42;;;;;;;5.65;2.92;;;9.50;93.40;;;;;;5073103;28;20033;-75
2020/12/17 09:11:34;;;;;;;4.40;2.60;;;9.60;93.40;;;;;;5071545;28;20056;-75
2020/12/17 09:14:01;;;;;;;3.47;2.40;;;9.60;93.40;;;;;;5070808;28;20481;-75
2020/12/17 09:16:28;;;;;;;4.05;2.40;;;9.60;93.30;;;;;;5071815;28;20116;-75
2020/12/17 09:18:58;;;;;;;3.67;2.42;;;9.60;93.30;;;;;;5072648;28;20016;-75
2020/12/17 09:21:24;;;;;;;8.95;3.28;;;9.60;93.20;;;;;;5073089;28;20052;-73
2020/12/17 09:23:55;;;;;;;2.92;2.28;;;9.70;93.20;;;;;;5052555;28;20470;-73
2020/12/17 09:26:20;;;;;;;5.45;2.50;;;9.70;93.20;;;;;;5072629;28;20035;-73
2020/12/17 09:29:03;;;;;;;6.22;2.47;;;9.70;93.10;;;;;;5076001;28;20458;-73
2020/12/17 09:31:34;;;;;;;2.63;2.42;;;9.70;93.10;;;;;;5077836;28;20039;-73
2020/12/17 09:34:05;;;;;;;4.55;2.45;;;9.70;93.00;;;;;;5092254;28;20020;-73
2020/12/17 09:36:31;;;;;;;7.40;2.80;;;9.80;93.00;;;;;;5072515;28;20444;-73
2020/12/17 09:39:08;;;;;;;4.05;2.30;;;9.70;93.00;;;;;;5071078;28;20060;-75
2020/12/17 09:41:34;;;;;;;5.00;2.60;;;9.80;93.00;;;;;;5072763;28;20384;-75
2020/12/17 09:43:59;;;;;;;3.65;2.40;;;9.80;92.90;;;;;;5071089;28;20123;-75
2020/12/17 09:46:25;;;;;;;4.22;2.22;;;9.80;92.90;;;;;;5071365;28;20111;-75
2020/12/17 09:48:51;;;;;;;6.45;2.55;;;9.90;92.80;;;;;;5071334;28;20021;-75
2020/12/17 09:51:20;;;;;;;6.47;2.33;;;9.90;92.70;;;;;;5071520;28;20439;-75
2020/12/17 09:53:46;;;;;;;;;;;9.90;92.60;;;;;;5072961;28;20026;-75
2020/12/17 09:56:17;;;;;;;3.22;2.67;;;9.90;92.40;;;;;;5085393;28;19916;-75
2020/12/17 09:58:44;;;;;;;4.85;2.80;;;9.90;92.60;;;;;;5075120;28;20077;-75
2020/12/17 10:01:10;;;;;;;6.43;2.85;;;10.00;92.60;;;;;;5057775;28;20400;-75
2020/12/17 10:03:36;;;;;;;5.63;2.67;;;10.00;92.50;;;;;;5092600;28;20032;-75
2020/12/17 10:06:02;;;;;;;5.65;2.55;;;10.10;92.50;;;;;;5092937;28;20043;-74
2020/12/17 10:08:27;;;;;;;5.45;2.65;;;10.10;92.40;;;;;;5078690;28;20036;-75
2020/12/17 10:10:53;;;;;;;5.05;2.85;;;10.20;92.30;;;;;;5096644;28;20028;-75
2020/12/17 10:13:19;;;;;;;6.10;2.65;;;10.20;92.30;;;;;;5061456;28;20499;-75
2020/12/17 10:15:44;;;;;;;4.28;2.25;;;10.20;92.30;;;;;;5096430;28;20117;-75
2020/12/17 10:18:10;;;;;;;4.95;2.80;;;10.30;92.10;;;;;;5096540;28;20021;-75
2020/12/17 10:20:36;;;;;;;6.00;2.58;;;10.30;92.10;;;;;;5078189;28;20020;-74
2020/12/17 10:23:02;;;;;;;7.35;2.97;;;10.30;92.00;;;;;;5078091;28;20123;-75
2020/12/17 10:25:28;;;;;;;6.68;3.20;;;10.30;91.90;;;;;;5078284;28;20040;-75
2020/12/17 10:27:55;;;;;;;7.30;2.95;;;10.30;91.80;;;;;;5078484;28;20074;-74
2020/12/17 10:30:21;;;;;;;13.23;3.40;;;10.30;91.80;;;;;;5077934;28;20032;-75
2020/12/17 10:32:46;;;;;;;6.60;3.05;;;10.30;91.70;;;;;;5078161;28;20032;-74
2020/12/17 10:35:12;;;;;;;7.35;3.25;;;10.30;91.70;;;;;;5096153;28;20020;-75
2020/12/17 10:37:40;;;;;;;7.00;3.05;;;10.30;91.80;;;;;;5096097;28;20491;-75
2020/12/17 10:40:06;;;;;;;9.50;3.00;;;10.30;91.70;;;;;;5095980;28;20028;-77
2020/12/17 10:42:31;;;;;;;7.18;2.97;;;10.40;91.60;;;;;;5061597;28;20032;-77
2020/12/17 10:44:57;;;;;;;7.10;3.00;;;10.40;91.40;;;;;;5078212;28;20066;-77
2020/12/17 10:47:22;;;;;;;7.53;2.67;;;10.40;91.50;;;;;;5061401;28;20032;-77
2020/12/17 10:49:48;;;;;;;7.88;2.90;;;10.40;91.50;;;;;;5095544;28;20478;-72
2020/12/17 10:52:14;;;;;;;6.18;2.50;;;10.40;91.50;;;;;;5095865;28;20020;-72
2020/12/17 10:54:40;;;;;;;6.45;3.00;;;10.30;91.50;;;;;;5095623;28;20031;-72
2020/12/17 10:57:06;;;;;;;8.15;3.03;;;10.40;91.40;;;;;;5095632;28;20020;-73
2020/12/17 10:59:32;;;;;;;3.70;2.30;;;10.30;91.20;;;;;;5077533;28;20024;-73
2020/12/17 11:01:58;;;;;;;8.43;3.28;;;10.40;91.20;;;;;;5077520;28;20031;-72
2020/12/17 11:04:24;;;;;;;5.40;2.88;;;10.40;91.10;;;;;;5095035;28;20108;-72
2020/12/17 11:06:50;;;;;;;5.65;2.60;;;10.40;91.10;;;;;;5077133;28;20052;-73
2020/12/17 11:09:16;;;;;;;7.22;2.47;;;10.50;90.90;;;;;;5077454;28;20024;-72
2020/12/17 11:11:42;;;;;;;10.48;3.00;;;10.60;90.80;;;;;;5095366;28;20119;-73
2020/12/17 11:14:08;;;;;;;10.00;2.78;;;10.70;90.60;;;;;;5095366;28;20103;-73
2020/12/17 11:16:33;;;;;;;6.40;2.47;;;10.80;90.40;;;;;;5095353;28;20024;-72
2020/12/17 11:19:00;;;;;;;7.35;2.78;;;10.80;89.90;;;;;;5094314;28;20020;-73
2020/12/17 11:21:26;;;;;;;7.93;2.58;;;10.80;89.70;;;;;;5095328;28;20432;-74
2020/12/17 11:23:52;;;;;;;9.30;2.72;;;10.80;89.50;;;;;;5060071;28;20055;-75
2020/12/17 11:26:17;;;;;;;5.85;2.40;;;10.80;90.10;;;;;;5076985;28;20036;-75
2020/12/17 11:28:43;;;;;;;7.63;2.45;;;10.90;89.70;;;;;;5076939;28;20028;-75
2020/12/17 11:31:08;;;;;;;5.97;2.47;;;10.90;89.40;;;;;;5095113;28;20103;-75
2020/12/17 11:33:35;;;;;;;10.38;2.22;;;11.00;89.70;;;;;;5060250;28;20039;-75
2020/12/17 11:36:01;;;;;;;11.23;2.47;;;11.00;89.30;;;;;;5060095;28;20099;-75
2020/12/17 11:38:27;;;;;;;10.98;2.83;;;10.90;88.80;;;;;;5076206;28;20047;-75
2020/12/17 11:40:52;;;;;;;14.68;2.58;;;11.00;88.90;;;;;;5076901;28;20472;-74
2020/12/17 11:43:18;;;;;;;8.35;2.42;;;11.00;87.90;;;;;;5094584;28;20146;-75
2020/12/17 11:45:44;;;;;;;8.52;2.53;;;11.00;88.20;;;;;;5059830;28;20494;-75
2020/12/17 11:48:10;;;;;;;13.35;3.90;;;11.00;88.80;;;;;;5094598;28;20035;-75
2020/12/17 11:50:35;;;;;;;10.07;2.58;;;10.90;87.40;;;;;;5076781;28;20574;-85
2020/12/17 11:53:01;;;;;;;10.05;2.30;;;10.90;88.00;;;;;;5095558;28;20028;-84
2020/12/17 11:55:27;;;;;;;7.78;2.20;;;10.90;88.40;;;;;;5077371;28;20055;-85
2020/12/17 11:57:52;;;;;;;9.70;2.83;;;10.90;88.00;;;;;;5077454;28;20533;-84
2020/12/17 12:00:18;;;;;;;9.00;2.20;;;11.10;87.20;;;;;;5095220;28;20027;-84
2020/12/17 12:02:44;;;;;;;9.95;2.55;;;11.40;87.10;;;;;;5077418;28;20387;-84
2020/12/17 12:05:10;;;;;;;6.20;2.20;;;11.50;85.80;;;;;;5077525;28;20020;-85
2020/12/17 12:07:35;;;;;;;4.93;2.03;;;11.90;84.50;;;;;;5077012;28;20380;-85
2020/12/17 12:10:03;;;;;;;2.92;1.90;;;12.40;82.40;;;;;;5076925;28;20039;-84
2020/12/17 12:12:29;;;;;;;8.27;1.90;;;12.70;80.90;;;;;;5095032;28;20085;-85
2020/12/17 12:14:55;;;;;;;6.10;1.90;;;13.10;79.90;;;;;;5095313;28;20358;-85
2020/12/17 12:17:20;;;;;;;6.80;1.95;;;13.60;78.20;;;;;;5077367;28;20036;-85
2020/12/17 12:19:46;;;;;;;6.50;2.22;;;14.00;76.30;;;;;;5076866;28;20119;-84
2020/12/17 12:22:12;;;;;;;6.40;1.58;;;14.40;74.40;;;;;;5094800;28;20024;-84
2020/12/17 12:24:37;;;;;;;5.07;1.70;;;14.70;73.10;;;;;;5077012;28;20036;-85
2020/12/17 12:27:04;;;;;;;5.78;1.90;;;14.90;71.90;;;;;;5076906;28;20075;-85
2020/12/17 12:29:30;;;;;;;5.93;1.85;;;14.90;71.00;;;;;;5093893;28;20032;-85
2020/12/17 12:31:55;;;;;;;7.90;1.90;;;14.70;71.20;;;;;;5094742;28;20101;-85
2020/12/17 12:34:21;;;;;;;6.55;1.65;;;14.70;71.10;;;;;;5094373;28;20032;-85
2020/12/17 12:36:52;;;;;;;4.80;1.52;;;14.70;71.50;;;;;;5076434;28;20054;-85
2020/12/17 12:39:18;;;;;;;5.40;1.67;;;14.50;71.70;;;;;;5094236;28;20045;-83
2020/12/17 12:41:49;;;;;;;5.00;1.60;;;14.10;73.60;;;;;;5086742;28;20048;-83
2020/12/17 12:44:15;;;;;;;4.75;1.80;;;13.90;74.20;;;;;;5078485;28;20020;-82
2020/12/17 12:46:42;;;;;;;8.48;1.75;;;13.60;75.90;;;;;;5093802;28;20027;-83
2020/12/17 12:49:08;;;;;;;4.78;1.73;;;13.20;76.80;;;;;;5094195;28;20059;-83
2020/12/17 12:51:34;;;;;;;6.75;1.83;;;13.30;76.30;;;;;;5093894;28;20020;-83
2020/12/17 12:54:00;;;;;;;4.85;1.52;;;13.40;75.70;;;;;;5093821;28;20056;-83